Time;durP1;ratioP1;P1;durP2;ratioP2;P2;SDS_P1;SDS_P2;PMS_P1;PMS_P2;Temp;Humidity;BMP_temperature;BMP_pressure;BME280_temperature;BME280_humidity;BME280_pressure;Samples;Min_cycle;Max_cycle;Signal;HPM_P1;HPM_P2
2023/07/20 00:01:14;;;;;;;3.83;3.20;;;16.60;1.00;;;;;;5067484;28;20456;-68
2023/07/20 00:03:40;;;;;;;4.20;3.50;;;16.60;1.00;;;;;;5069195;28;20762;-68
2023/07/20 00:06:06;;;;;;;4.20;3.60;;;16.60;1.00;;;;;;5067928;28;20411;-68
2023/07/20 00:08:31;;;;;;;4.68;4.00;;;16.60;1.00;;;;;;5067554;28;20402;-68
2023/07/20 00:10:58;;;;;;;5.40;3.83;;;16.60;1.00;;;;;;5067439;28;20404;-68
2023/07/20 00:13:24;;;;;;;4.35;3.83;;;16.70;1.00;;;;;;5072294;28;20407;-68
2023/07/20 00:15:50;;;;;;;5.23;3.80;;;16.60;1.00;;;;;;5068125;28;20391;-67
2023/07/20 00:18:16;;;;;;;5.53;4.03;;;16.60;1.00;;;;;;5071138;28;20410;-68
2023/07/20 00:20:41;;;;;;;6.93;3.87;;;16.60;1.00;;;;;;5053754;28;20431;-68
2023/07/20 00:23:07;;;;;;;5.90;3.57;;;16.50;1.00;;;;;;5071309;28;20403;-68
2023/07/20 00:25:33;;;;;;;5.22;3.85;;;16.50;1.00;;;;;;5071512;28;20910;-68
2023/07/20 00:27:59;;;;;;;4.33;3.80;;;16.50;1.00;;;;;;5071949;28;20450;-68
2023/07/20 00:30:24;;;;;;;4.18;3.78;;;16.50;1.00;;;;;;5071273;28;20414;-68
2023/07/20 00:32:50;;;;;;;4.40;3.30;;;16.50;1.00;;;;;;5036478;28;20412;-68
2023/07/20 00:35:16;;;;;;;5.17;3.67;;;16.50;1.00;;;;;;5071400;28;20419;-68
2023/07/20 00:37:42;;;;;;;5.43;3.10;;;16.50;1.00;;;;;;5071074;28;21118;-68
2023/07/20 00:40:07;;;;;;;4.33;2.90;;;16.50;1.00;;;;;;5071087;28;20456;-68
2023/07/20 00:42:33;;;;;;;3.03;2.17;;;16.40;1.00;;;;;;5070973;28;20407;-68
2023/07/20 00:45:00;;;;;;;2.55;1.80;;;16.40;1.00;;;;;;5071429;28;20415;-68
2023/07/20 00:47:26;;;;;;;2.13;1.70;;;16.40;1.00;;;;;;5088040;28;21022;-68
2023/07/20 00:49:52;;;;;;;5.32;2.03;;;16.40;1.00;;;;;;5071158;28;20923;-68
2023/07/20 00:52:20;;;;;;;3.05;1.73;;;16.40;1.00;;;;;;5070581;28;20539;-68
2023/07/20 00:54:46;;;;;;;3.42;2.20;;;16.30;1.00;;;;;;5072546;28;20465;-68
2023/07/20 00:57:14;;;;;;;2.73;1.70;;;16.30;1.00;;;;;;5052820;28;20407;-69
2023/07/20 00:59:40;;;;;;;4.03;2.10;;;16.30;1.00;;;;;;5070948;28;20809;-68
2023/07/20 01:02:06;;;;;;;4.32;2.28;;;16.30;1.00;;;;;;5070307;28;20474;-68
2023/07/20 01:04:32;;;;;;;2.85;2.03;;;16.20;1.00;;;;;;5070510;28;20407;-68
2023/07/20 01:07:14;;;;;;;3.72;2.17;;;16.20;1.00;;;;;;5070603;28;20450;-68
2023/07/20 01:09:52;;;;;;;4.65;2.10;;;16.10;1.00;;;;;;5064927;28;20395;-68
2023/07/20 01:12:35;;;;;;;4.65;2.60;;;16.10;1.00;;;;;;5066701;28;20421;-68
2023/07/20 01:15:01;;;;;;;3.38;2.28;;;16.00;1.00;;;;;;5071502;28;20419;-68
2023/07/20 01:17:27;;;;;;;4.38;2.15;;;16.00;1.00;;;;;;5070248;28;20450;-68
2023/07/20 01:19:52;;;;;;;4.33;2.30;;;15.90;1.00;;;;;;5070214;28;21268;-67
2023/07/20 01:22:39;;;;;;;4.97;2.60;;;15.90;1.00;;;;;;5070469;28;20411;-68
2023/07/20 01:25:17;;;;;;;3.05;2.50;;;15.90;1.00;;;;;;5073595;28;20507;-68
2023/07/20 01:28:16;;;;;;;5.45;2.45;;;15.80;1.00;;;;;;5051767;28;20443;-68
2023/07/20 01:31:09;;;;;;;5.27;2.70;;;15.80;1.00;;;;;;5063550;28;20996;-68
2023/07/20 01:33:36;;;;;;;3.87;2.50;;;15.70;1.00;;;;;;5085007;28;20953;-68
2023/07/20 01:36:03;;;;;;;5.30;2.65;;;15.70;1.00;;;;;;5070064;28;20824;-68
2023/07/20 01:38:29;;;;;;;4.03;2.60;;;15.70;1.00;;;;;;5069743;28;20797;-68
2023/07/20 01:40:55;;;;;;;3.60;2.47;;;15.60;1.00;;;;;;5045013;28;20442;-68
2023/07/20 01:43:21;;;;;;;5.87;2.70;;;15.60;1.00;;;;;;5073370;28;20418;-68
2023/07/20 01:45:50;;;;;;;5.33;2.83;;;15.50;1.00;;;;;;5071357;28;20478;-68
2023/07/20 01:48:16;;;;;;;5.57;2.50;;;15.40;1.00;;;;;;5070199;28;20465;-68
2023/07/20 01:50:41;;;;;;;3.63;2.57;;;15.40;1.00;;;;;;5069454;28;20404;-68
2023/07/20 01:53:07;;;;;;;6.35;2.53;;;15.30;1.00;;;;;;5070007;28;20754;-68
2023/07/20 01:55:32;;;;;;;6.47;2.80;;;15.30;1.00;;;;;;5069737;28;20403;-68
2023/07/20 01:58:00;;;;;;;4.40;3.10;;;15.30;1.00;;;;;;5070080;28;20399;-67
2023/07/20 02:00:25;;;;;;;4.72;2.65;;;15.30;1.00;;;;;;5069749;28;20497;-68
2023/07/20 02:02:51;;;;;;;4.47;2.50;;;15.20;1.00;;;;;;5069207;28;20412;-68
2023/07/20 02:05:17;;;;;;;5.63;2.50;;;15.20;1.00;;;;;;5069710;28;20806;-68
2023/07/20 02:07:43;;;;;;;5.93;2.60;;;15.10;1.00;;;;;;5069367;28;20404;-68
2023/07/20 02:10:09;;;;;;;5.85;3.00;;;15.10;1.00;;;;;;5069800;28;20408;-68
2023/07/20 02:12:35;;;;;;;6.38;2.20;;;15.10;1.00;;;;;;5069445;28;20449;-68
2023/07/20 02:15:01;;;;;;;4.90;2.43;;;15.00;1.00;;;;;;5069041;28;20773;-68
2023/07/20 02:17:27;;;;;;;4.82;2.30;;;15.00;1.00;;;;;;5069220;28;20442;-69
2023/07/20 02:19:53;;;;;;;5.60;2.50;;;14.90;1.00;;;;;;5069225;28;20497;-68
2023/07/20 02:22:19;;;;;;;6.15;2.33;;;14.90;1.00;;;;;;5066266;28;20454;-68
2023/07/20 02:24:44;;;;;;;5.57;2.37;;;14.80;1.00;;;;;;5068905;28;20423;-68
2023/07/20 02:27:10;;;;;;;5.88;2.50;;;14.80;1.00;;;;;;5069587;28;20414;-67
2023/07/20 02:29:36;;;;;;;4.40;2.50;;;14.80;1.00;;;;;;5069172;28;20392;-68
2023/07/20 02:32:01;;;;;;;5.50;2.30;;;14.80;1.00;;;;;;5068991;28;20400;-68
2023/07/20 02:34:27;;;;;;;6.00;2.33;;;14.70;1.00;;;;;;5072992;28;20457;-68
2023/07/20 02:36:56;;;;;;;4.90;1.90;;;14.70;1.00;;;;;;5068948;28;21023;-67
2023/07/20 02:39:21;;;;;;;4.65;2.03;;;14.60;1.00;;;;;;5033907;28;20523;-67
2023/07/20 02:41:47;;;;;;;4.20;2.20;;;14.60;1.00;;;;;;5050892;28;20905;-68
2023/07/20 02:44:14;;;;;;;3.83;1.90;;;14.60;1.00;;;;;;5069071;28;20860;-68
2023/07/20 02:46:39;;;;;;;5.38;2.05;;;14.50;1.00;;;;;;5068690;28;20431;-68
2023/07/20 02:49:05;;;;;;;4.93;1.77;;;14.50;1.00;;;;;;5050267;28;20442;-68
2023/07/20 02:51:31;;;;;;;3.85;1.90;;;14.50;1.00;;;;;;5051082;28;20893;-68
2023/07/20 02:53:56;;;;;;;6.17;2.00;;;14.40;1.00;;;;;;5070243;28;20409;-67
2023/07/20 02:56:22;;;;;;;4.57;1.73;;;14.40;1.00;;;;;;5068852;28;20392;-68
2023/07/20 02:58:48;;;;;;;5.97;1.73;;;14.40;1.00;;;;;;5068691;28;20986;-67
2023/07/20 03:01:15;;;;;;;5.90;1.70;;;14.30;1.00;;;;;;5068187;28;20466;-68
2023/07/20 03:03:45;;;;;;;5.37;2.10;;;14.30;1.00;;;;;;5068494;28;20453;-68
2023/07/20 03:06:11;;;;;;;4.50;1.55;;;14.20;1.00;;;;;;5068143;28;20491;-68
2023/07/20 03:08:37;;;;;;;4.17;1.60;;;14.20;1.00;;;;;;5068412;28;20510;-68
2023/07/20 03:11:02;;;;;;;4.85;1.70;;;14.20;1.00;;;;;;5068506;28;20458;-68
2023/07/20 03:13:28;;;;;;;3.93;1.43;;;14.20;1.00;;;;;;5068521;28;20445;-68
2023/07/20 03:15:53;;;;;;;3.50;1.40;;;14.20;1.00;;;;;;5067469;28;20402;-68
2023/07/20 03:18:19;;;;;;;3.97;1.30;;;14.10;1.00;;;;;;5083978;28;20778;-68
2023/07/20 03:20:46;;;;;;;4.05;1.50;;;14.10;1.00;;;;;;5083527;28;20431;-68
2023/07/20 03:23:12;;;;;;;4.63;1.40;;;14.10;1.00;;;;;;5068742;28;20454;-68
2023/07/20 03:25:38;;;;;;;5.55;1.75;;;14.10;1.00;;;;;;5049816;28;20427;-67
2023/07/20 03:28:04;;;;;;;6.15;1.50;;;14.10;1.00;;;;;;5068604;28;20403;-68
2023/07/20 03:30:29;;;;;;;4.07;1.60;;;14.10;1.00;;;;;;5067367;28;20404;-68
2023/07/20 03:32:55;;;;;;;3.63;1.60;;;14.10;1.00;;;;;;5068240;28;20471;-67
2023/07/20 03:35:20;;;;;;;5.53;1.97;;;14.10;1.00;;;;;;5067658;28;20413;-68
2023/07/20 03:37:46;;;;;;;6.90;2.38;;;14.00;1.00;;;;;;5068184;28;20452;-68
2023/07/20 03:40:12;;;;;;;4.40;1.93;;;14.00;1.00;;;;;;5067548;28;20399;-68
2023/07/20 03:42:38;;;;;;;3.17;2.03;;;14.00;1.00;;;;;;5067905;28;20471;-68
2023/07/20 03:45:06;;;;;;;4.68;2.50;;;13.90;1.00;;;;;;5093465;28;20826;-68
2023/07/20 03:47:31;;;;;;;5.45;2.30;;;13.90;1.00;;;;;;5068215;28;20403;-68
2023/07/20 03:49:57;;;;;;;5.47;2.83;;;13.90;1.00;;;;;;5082511;28;20404;-68
2023/07/20 03:52:23;;;;;;;3.60;2.50;;;13.90;1.00;;;;;;5067573;28;20399;-67
2023/07/20 03:54:51;;;;;;;4.90;2.55;;;13.90;1.00;;;;;;5084708;28;20436;-68
2023/07/20 03:57:17;;;;;;;5.57;2.75;;;13.90;1.00;;;;;;5049753;28;20445;-68
2023/07/20 03:59:46;;;;;;;6.87;3.53;;;14.00;1.00;;;;;;5093750;28;20399;-67
2023/07/20 04:02:11;;;;;;;5.22;2.92;;;14.00;1.00;;;;;;5088616;28;20511;-68
2023/07/20 04:04:37;;;;;;;4.57;2.80;;;14.00;1.00;;;;;;5067436;28;20510;-67
2023/07/20 04:07:03;;;;;;;11.33;4.33;;;14.10;1.00;;;;;;5068212;28;20495;-68
2023/07/20 04:09:28;;;;;;;7.43;3.28;;;14.20;1.00;;;;;;5067463;28;20765;-68
2023/07/20 04:11:54;;;;;;;6.60;3.17;;;14.10;1.00;;;;;;5067438;28;20400;-68
2023/07/20 04:14:20;;;;;;;8.55;3.60;;;14.20;1.00;;;;;;5068151;28;20407;-67
2023/07/20 04:16:48;;;;;;;5.30;3.10;;;14.10;1.00;;;;;;5067390;28;20439;-67
2023/07/20 04:19:14;;;;;;;7.35;3.45;;;14.00;1.00;;;;;;5066532;28;20518;-67
2023/07/20 04:21:43;;;;;;;9.83;3.90;;;14.00;1.00;;;;;;5049320;28;20526;-67
2023/07/20 04:24:08;;;;;;;9.85;3.83;;;14.00;1.00;;;;;;5093386;28;20486;-67
2023/07/20 04:26:35;;;;;;;9.53;3.87;;;14.00;1.00;;;;;;5049780;28;20537;-67
2023/07/20 04:29:00;;;;;;;10.20;4.07;;;13.90;1.00;;;;;;5049750;28;20409;-67
2023/07/20 04:31:26;;;;;;;12.13;4.30;;;14.00;1.00;;;;;;5059645;28;20408;-67
2023/07/20 04:33:52;;;;;;;8.25;4.07;;;14.00;1.00;;;;;;5066383;28;20962;-67
2023/07/20 04:36:19;;;;;;;9.10;4.07;;;13.90;1.00;;;;;;5066832;28;20400;-67
2023/07/20 04:38:45;;;;;;;6.88;3.65;;;13.90;1.00;;;;;;5066011;28;20417;-67
2023/07/20 04:41:12;;;;;;;9.82;3.80;;;13.90;1.00;;;;;;5068490;28;20427;-67
2023/07/20 04:43:42;;;;;;;7.63;3.38;;;13.80;1.00;;;;;;5066902;28;20410;-67
2023/07/20 04:46:08;;;;;;;7.50;3.45;;;13.80;1.00;;;;;;5049711;28;20407;-67
2023/07/20 04:48:33;;;;;;;9.77;3.03;;;13.80;1.00;;;;;;5067258;28;20400;-67
2023/07/20 04:50:59;;;;;;;6.80;2.33;;;13.90;1.00;;;;;;5067508;28;20421;-67
2023/07/20 04:53:24;;;;;;;6.75;2.60;;;13.90;1.00;;;;;;5066914;28;20750;-67
2023/07/20 04:55:51;;;;;;;7.67;2.07;;;14.00;1.00;;;;;;5049646;28;20404;-67
2023/07/20 04:58:21;;;;;;;7.13;1.90;;;14.00;1.00;;;;;;5067410;28;20823;-67
2023/07/20 05:00:48;;;;;;;7.57;2.07;;;14.10;1.00;;;;;;5070393;28;20429;-67
2023/07/20 05:03:13;;;;;;;5.15;1.67;;;14.20;1.00;;;;;;5041101;28;20406;-67
2023/07/20 05:05:39;;;;;;;3.63;1.50;;;14.30;1.00;;;;;;5062375;28;20507;-67
2023/07/20 05:08:04;;;;;;;4.20;1.90;;;14.40;1.00;;;;;;5082325;28;20764;-67
2023/07/20 05:10:30;;;;;;;4.28;1.67;;;14.60;1.00;;;;;;5088846;28;20488;-67
2023/07/20 05:12:56;;;;;;;8.37;2.47;;;14.60;1.00;;;;;;5074466;28;20495;-67
2023/07/20 05:15:21;;;;;;;4.87;1.90;;;14.60;1.00;;;;;;5076415;28;20891;-68
2023/07/20 05:17:48;;;;;;;6.05;2.30;;;14.60;1.00;;;;;;5070555;28;20407;-67
2023/07/20 05:20:14;;;;;;;6.63;2.17;;;14.60;1.00;;;;;;5071446;28;20453;-67
2023/07/20 05:22:40;;;;;;;7.23;2.40;;;14.60;1.00;;;;;;5079244;28;20404;-66
2023/07/20 05:25:08;;;;;;;6.17;2.50;;;14.60;1.00;;;;;;5070904;28;20808;-67
2023/07/20 05:27:34;;;;;;;7.32;2.88;;;14.70;1.00;;;;;;5052507;28;21158;-67
2023/07/20 05:30:00;;;;;;;8.45;2.85;;;14.70;1.00;;;;;;5070288;28;20411;-67
2023/07/20 05:32:26;;;;;;;9.20;3.38;;;14.70;1.00;;;;;;5051739;28;20419;-67
2023/07/20 05:34:54;;;;;;;8.10;3.40;;;14.70;1.00;;;;;;5069955;28;20423;-67
2023/07/20 05:37:19;;;;;;;10.80;3.83;;;14.70;1.00;;;;;;5073561;28;20962;-67
2023/07/20 05:39:45;;;;;;;7.55;3.17;;;14.80;1.00;;;;;;5069487;28;20400;-67
2023/07/20 05:42:11;;;;;;;9.33;3.10;;;14.80;1.00;;;;;;5051931;28;20464;-68
2023/07/20 05:44:36;;;;;;;6.00;3.05;;;14.80;1.00;;;;;;5084996;28;20408;-67
2023/07/20 05:47:02;;;;;;;8.03;2.83;;;14.80;1.00;;;;;;5052208;28;20457;-68
2023/07/20 05:49:28;;;;;;;7.50;2.90;;;14.90;1.00;;;;;;5069895;28;20407;-67
2023/07/20 05:51:55;;;;;;;7.97;2.87;;;14.90;1.00;;;;;;5069917;28;20400;-67
2023/07/20 05:54:21;;;;;;;6.35;2.28;;;15.00;1.00;;;;;;5070107;28;20529;-67
2023/07/20 05:56:47;;;;;;;5.37;1.87;;;15.10;1.00;;;;;;5069433;28;20482;-67
2023/07/20 05:59:13;;;;;;;5.25;1.85;;;15.10;1.00;;;;;;5069413;28;20392;-67
2023/07/20 06:01:38;;;;;;;3.80;1.70;;;15.20;1.00;;;;;;5069526;28;20548;-68
2023/07/20 06:04:04;;;;;;;5.00;1.70;;;15.20;1.00;;;;;;5069550;28;20400;-67
2023/07/20 06:06:30;;;;;;;4.25;1.38;;;15.30;1.00;;;;;;5051761;28;20403;-68
2023/07/20 06:08:55;;;;;;;6.13;1.70;;;15.30;1.00;;;;;;5069707;28;20396;-67
2023/07/20 06:11:21;;;;;;;5.07;1.73;;;15.40;1.00;;;;;;5069059;28;20399;-68
2023/07/20 06:13:46;;;;;;;5.13;1.50;;;15.50;1.00;;;;;;5068175;28;20422;-68
2023/07/20 06:16:12;;;;;;;4.73;1.20;;;15.60;1.00;;;;;;5069891;28;20482;-68
2023/07/20 06:18:38;;;;;;;6.50;1.40;;;15.70;1.00;;;;;;5084630;28;20769;-68
2023/07/20 06:21:04;;;;;;;4.53;0.90;;;15.80;1.00;;;;;;5069398;28;20455;-68
2023/07/20 06:23:29;;;;;;;3.83;1.20;;;15.80;1.00;;;;;;5068981;28;20432;-68
2023/07/20 06:25:55;;;;;;;3.80;1.53;;;15.80;1.00;;;;;;5069105;28;20867;-68
2023/07/20 06:28:20;;;;;;;7.00;1.45;;;15.80;1.00;;;;;;5069219;28;20398;-68
2023/07/20 06:30:46;;;;;;;4.17;1.17;;;15.90;1.00;;;;;;5069349;28;20395;-68
2023/07/20 06:33:12;;;;;;;3.92;1.30;;;15.90;1.00;;;;;;5069331;28;20486;-68
2023/07/20 06:35:40;;;;;;;5.93;1.53;;;16.00;1.00;;;;;;5051012;28;20493;-68
2023/07/20 06:38:08;;;;;;;6.05;1.65;;;16.00;1.00;;;;;;5068700;28;20404;-68
2023/07/20 06:40:33;;;;;;;5.68;1.70;;;16.10;1.00;;;;;;5056477;28;20418;-68
2023/07/20 06:42:59;;;;;;;5.10;1.40;;;16.20;1.00;;;;;;5068945;28;20770;-68
2023/07/20 06:45:25;;;;;;;6.07;1.77;;;16.30;1.00;;;;;;5068808;28;20419;-68
2023/07/20 06:47:50;;;;;;;6.43;1.70;;;16.40;1.00;;;;;;5068770;28;20411;-68
2023/07/20 06:50:16;;;;;;;4.80;1.50;;;16.50;1.00;;;;;;5068409;28;20485;-68
2023/07/20 06:52:41;;;;;;;5.10;1.60;;;16.60;1.00;;;;;;5050860;28;20873;-68
2023/07/20 06:55:08;;;;;;;5.10;1.70;;;16.80;1.00;;;;;;5056053;28;20400;-68
2023/07/20 06:57:33;;;;;;;4.47;1.77;;;16.90;1.00;;;;;;5068131;28;20427;-68
2023/07/20 06:59:59;;;;;;;5.20;2.30;;;17.10;1.00;;;;;;5068439;28;20897;-68
2023/07/20 07:02:24;;;;;;;7.10;2.73;;;17.30;1.00;;;;;;5050253;28;20443;-68
2023/07/20 07:04:50;;;;;;;6.10;2.50;;;17.40;1.00;;;;;;5068648;28;20400;-68
2023/07/20 07:07:16;;;;;;;8.60;2.63;;;17.40;1.00;;;;;;5068612;28;20400;-67
2023/07/20 07:09:42;;;;;;;8.77;2.22;;;17.20;1.00;;;;;;5068017;28;20425;-68
2023/07/20 07:12:08;;;;;;;6.50;2.55;;;16.90;1.00;;;;;;5067847;28;20398;-67
2023/07/20 07:14:34;;;;;;;7.40;2.20;;;16.60;1.00;;;;;;5068285;28;20450;-68
2023/07/20 07:17:00;;;;;;;8.10;2.50;;;16.40;1.00;;;;;;5067795;28;21099;-68
2023/07/20 07:19:26;;;;;;;5.97;2.40;;;16.20;1.00;;;;;;5068126;28;20404;-67
2023/07/20 07:21:52;;;;;;;6.13;2.50;;;16.20;1.00;;;;;;5068024;28;20449;-68
2023/07/20 07:24:17;;;;;;;7.25;2.20;;;16.10;1.00;;;;;;5068180;28;20409;-68
2023/07/20 07:26:44;;;;;;;5.80;2.05;;;16.20;1.00;;;;;;5049768;28;20488;-68
2023/07/20 07:29:09;;;;;;;6.22;2.40;;;16.30;1.00;;;;;;5050025;28;20440;-68
2023/07/20 07:31:38;;;;;;;7.07;2.55;;;16.30;1.00;;;;;;5067882;28;20431;-68
2023/07/20 07:34:04;;;;;;;4.93;1.73;;;16.40;1.00;;;;;;5055446;28;20410;-68
2023/07/20 07:36:31;;;;;;;5.85;1.45;;;16.40;1.00;;;;;;5068188;28;20453;-68
2023/07/20 07:38:57;;;;;;;5.75;1.10;;;16.40;1.00;;;;;;5082937;28;20414;-68
2023/07/20 07:41:23;;;;;;;6.75;1.30;;;16.40;1.00;;;;;;5067368;28;20427;-68
2023/07/20 07:43:48;;;;;;;6.37;1.10;;;16.50;1.00;;;;;;5067284;28;20400;-68
2023/07/20 07:46:14;;;;;;;7.10;1.00;;;16.50;1.00;;;;;;5066272;28;20439;-68
2023/07/20 07:48:40;;;;;;;5.00;1.27;;;16.50;1.00;;;;;;5067570;28;20414;-68
2023/07/20 07:51:06;;;;;;;5.57;0.93;;;16.60;1.00;;;;;;5067678;28;20426;-68
2023/07/20 07:53:32;;;;;;;5.20;0.80;;;16.80;1.00;;;;;;5067664;28;20415;-68
2023/07/20 07:55:58;;;;;;;4.53;0.70;;;16.90;1.00;;;;;;5067067;28;20454;-68
2023/07/20 07:58:24;;;;;;;4.37;0.60;;;17.10;99.90;;;;;;5065724;28;20396;-68
2023/07/20 08:00:49;;;;;;;4.78;0.88;;;17.20;99.90;;;;;;5067711;28;20925;-68
2023/07/20 08:03:15;;;;;;;4.83;0.60;;;17.20;99.90;;;;;;5067671;28;20392;-68
2023/07/20 08:05:41;;;;;;;3.13;0.70;;;17.30;99.90;;;;;;5081447;28;20831;-68
2023/07/20 08:08:08;;;;;;;3.97;0.87;;;17.40;99.90;;;;;;5067128;28;20490;-68
2023/07/20 08:10:34;;;;;;;3.43;0.60;;;17.50;99.90;;;;;;5067396;28;20897;-68
2023/07/20 08:12:59;;;;;;;5.70;0.60;;;17.60;99.90;;;;;;5067647;28;20399;-68
2023/07/20 08:15:25;;;;;;;4.33;0.60;;;17.70;99.90;;;;;;5067010;28;20814;-68
2023/07/20 08:17:52;;;;;;;4.43;0.90;;;17.80;99.90;;;;;;5067193;28;20395;-68
2023/07/20 08:20:18;;;;;;;5.63;0.50;;;17.80;1.00;;;;;;5049213;28;20785;-68
2023/07/20 08:22:44;;;;;;;2.67;0.40;;;17.90;1.00;;;;;;5065364;28;20395;-68
2023/07/20 08:25:09;;;;;;;4.13;0.60;;;18.00;1.00;;;;;;5067489;28;20404;-68
2023/07/20 08:27:36;;;;;;;4.40;0.50;;;18.10;99.90;;;;;;5066515;28;20400;-69
2023/07/20 08:30:02;;;;;;;4.47;0.53;;;18.10;99.90;;;;;;5067173;28;20503;-68
2023/07/20 08:32:28;;;;;;;3.15;0.88;;;18.20;99.90;;;;;;5067202;28;20404;-68
2023/07/20 08:34:53;;;;;;;3.13;0.50;;;18.20;99.90;;;;;;5067003;28;20572;-68
2023/07/20 08:37:19;;;;;;;2.00;0.40;;;18.10;1.00;;;;;;5068725;28;20731;-68
2023/07/20 08:39:45;;;;;;;3.17;0.40;;;18.10;99.90;;;;;;5069877;28;20434;-68
2023/07/20 08:42:12;;;;;;;4.80;0.50;;;18.00;28.50;;;;;;5071349;28;20450;-68
2023/07/20 08:44:39;;;;;;;4.50;0.70;;;18.10;95.30;;;;;;5071217;28;20398;-68
2023/07/20 08:47:07;;;;;;;3.85;0.57;;;18.20;99.90;;;;;;5070306;28;20905;-68
2023/07/20 08:49:33;;;;;;;3.58;0.50;;;18.30;99.90;;;;;;5070469;28;20415;-68
2023/07/20 08:52:00;;;;;;;2.47;0.50;;;18.50;82.50;;;;;;5071172;28;21059;-68
2023/07/20 08:54:32;;;;;;;2.78;0.40;;;18.50;99.90;;;;;;5070755;28;20414;-68
2023/07/20 08:57:02;;;;;;;3.33;0.45;;;18.50;99.90;;;;;;5070779;28;20411;-68
2023/07/20 08:59:30;;;;;;;3.92;0.40;;;18.40;65.80;;;;;;5086255;28;20492;-68
2023/07/20 09:01:57;;;;;;;2.15;0.40;;;18.30;27.00;;;;;;5070795;28;21217;-69
2023/07/20 09:04:24;;;;;;;2.40;0.60;;;18.40;99.90;;;;;;5071062;28;20422;-68
2023/07/20 09:06:50;;;;;;;3.03;0.30;;;18.50;95.30;;;;;;5070324;28;20404;-68
2023/07/20 09:09:16;;;;;;;3.00;0.40;;;18.70;99.90;;;;;;5070209;28;20400;-68
2023/07/20 09:11:41;;;;;;;3.10;0.70;;;18.80;99.90;;;;;;5070808;28;20975;-68
2023/07/20 09:14:08;;;;;;;3.20;0.38;;;18.90;1.00;;;;;;5051995;28;20777;-68
2023/07/20 09:16:47;;;;;;;3.53;0.50;;;19.00;90.00;;;;;;5071123;28;20437;-68
2023/07/20 09:19:18;;;;;;;3.57;0.50;;;19.00;1.00;;;;;;5052264;28;20905;-67
2023/07/20 09:21:50;;;;;;;2.73;0.33;;;19.00;1.00;;;;;;5070382;28;20824;-68
2023/07/20 09:24:18;;;;;;;2.63;0.40;;;18.70;99.90;;;;;;5085045;28;20955;-67
2023/07/20 09:26:44;;;;;;;2.22;0.40;;;18.60;99.90;;;;;;5070200;28;20396;-68
2023/07/20 09:29:11;;;;;;;2.35;0.30;;;18.60;99.90;;;;;;5052280;28;20788;-68
2023/07/20 09:31:37;;;;;;;3.70;0.50;;;18.70;99.90;;;;;;5069998;28;20399;-68
2023/07/20 09:34:04;;;;;;;11.38;1.50;;;18.90;99.90;;;;;;5070366;28;20430;-67
2023/07/20 09:36:34;;;;;;;2.22;0.30;;;19.20;99.90;;;;;;5070148;28;20444;-67
2023/07/20 09:39:00;;;;;;;2.88;0.40;;;19.70;99.90;;;;;;5058115;28;20789;-68
2023/07/20 09:41:26;;;;;;;2.83;0.33;;;20.30;94.50;;;;;;5070116;28;20424;-68
2023/07/20 09:43:53;;;;;;;2.67;0.45;;;20.70;1.00;;;;;;5070422;28;20407;-68
2023/07/20 09:46:20;;;;;;;2.00;0.30;;;21.00;99.90;;;;;;5069478;28;20739;-68
2023/07/20 09:48:53;;;;;;;2.30;0.40;;;21.30;99.90;;;;;;5069837;28;20412;-68
2023/07/20 09:51:23;;;;;;;2.30;0.50;;;21.60;1.00;;;;;;5069884;28;20855;-68
2023/07/20 09:53:49;;;;;;;2.05;0.38;;;21.50;1.00;;;;;;5070107;28;20418;-68
2023/07/20 09:56:17;;;;;;;3.72;0.40;;;21.50;99.90;;;;;;5069819;28;20984;-68
2023/07/20 09:58:45;;;;;;;3.90;0.32;;;21.50;99.90;;;;;;5070040;28;20415;-68
2023/07/20 10:01:13;;;;;;;3.28;0.40;;;21.60;99.90;;;;;;5068786;28;20932;-68
2023/07/20 10:03:41;;;;;;;2.47;0.32;;;21.50;99.90;;;;;;5068788;28;20443;-68
2023/07/20 10:06:10;;;;;;;1.55;0.25;;;21.60;99.90;;;;;;5068712;28;20440;-68
2023/07/20 10:08:39;;;;;;;1.30;0.20;;;21.80;99.90;;;;;;5069196;28;20857;-68
2023/07/20 10:11:07;;;;;;;1.48;0.20;;;22.10;99.90;;;;;;5064929;28;20907;-68
2023/07/20 10:13:37;;;;;;;3.20;0.40;;;22.40;99.90;;;;;;5050609;28;20859;-68
2023/07/20 10:16:28;;;;;;;2.77;0.30;;;22.70;99.90;;;;;;5050534;28;20420;-68
2023/07/20 10:19:24;;;;;;;1.23;0.20;;;23.00;99.90;;;;;;5068184;28;20404;-68
2023/07/20 10:22:01;;;;;;;2.10;0.40;;;22.80;99.90;;;;;;5049709;28;20518;-68
2023/07/20 10:24:28;;;;;;;1.67;0.30;;;22.80;99.90;;;;;;5068411;28;20914;-68
2023/07/20 10:26:55;;;;;;;2.13;0.30;;;22.80;99.90;;;;;;5068039;28;20427;-69
2023/07/20 10:29:21;;;;;;;3.28;0.47;;;22.70;99.90;;;;;;5068267;28;20463;-68
2023/07/20 10:31:48;;;;;;;1.50;0.20;;;22.80;99.90;;;;;;5067782;28;20400;-68
2023/07/20 10:34:14;;;;;;;2.60;0.30;;;23.10;99.90;;;;;;5050307;28;20400;-68
2023/07/20 10:36:48;;;;;;;1.70;0.30;;;23.40;99.90;;;;;;5067222;28;20395;-69
2023/07/20 10:39:30;;;;;;;1.43;0.20;;;23.40;99.90;;;;;;5083873;28;20410;-69
2023/07/20 10:42:10;;;;;;;1.65;0.28;;;23.40;99.90;;;;;;5049674;28;20435;-68
2023/07/20 10:44:42;;;;;;;0.93;0.20;;;23.60;99.90;;;;;;5050083;28;20400;-69
2023/07/20 10:47:12;;;;;;;0.77;0.20;;;23.90;99.90;;;;;;5067638;28;20419;-69
2023/07/20 10:49:58;;;;;;;2.25;0.30;;;24.00;99.90;;;;;;5067587;28;20404;-68
2023/07/20 10:52:23;;;;;;;2.25;0.40;;;23.90;99.90;;;;;;5067744;28;20521;-69
2023/07/20 10:54:49;;;;;;;2.27;0.20;;;24.00;99.90;;;;;;5067250;28;20878;-68
2023/07/20 10:57:30;;;;;;;2.97;0.30;;;24.30;99.90;;;;;;5067861;28;20429;-68
2023/07/20 11:00:12;;;;;;;2.38;0.30;;;24.50;99.90;;;;;;5048761;28;20444;-68
2023/07/20 11:02:49;;;;;;;1.50;0.28;;;24.70;99.90;;;;;;5082451;28;20440;-68
2023/07/20 11:05:38;;;;;;;1.80;0.30;;;25.00;99.90;;;;;;5068292;28;20555;-69
2023/07/20 11:08:11;;;;;;;1.60;0.20;;;25.10;99.90;;;;;;5067814;28;20410;-68
2023/07/20 11:10:37;;;;;;;1.50;0.22;;;25.30;99.90;;;;;;5068629;28;20483;-68
2023/07/20 11:13:25;;;;;;;3.15;0.40;;;25.30;99.90;;;;;;5048950;28;20487;-69
2023/07/20 11:15:57;;;;;;;3.35;0.30;;;24.90;99.90;;;;;;5067876;28;20411;-68
2023/07/20 11:18:26;;;;;;;1.70;0.25;;;24.40;99.90;;;;;;5068449;28;20492;-69
2023/07/20 11:20:52;;;;;;;1.48;0.20;;;24.30;99.90;;;;;;5067802;28;20502;-68
2023/07/20 11:23:19;;;;;;;0.77;0.28;;;24.30;99.90;;;;;;5068519;28;20407;-68
2023/07/20 11:25:45;;;;;;;1.75;0.20;;;24.40;99.90;;;;;;5067778;28;20411;-68
2023/07/20 11:28:11;;;;;;;1.30;0.20;;;24.50;99.90;;;;;;5068724;28;20485;-68
2023/07/20 11:30:40;;;;;;;1.58;0.32;;;24.60;99.90;;;;;;5068305;28;20449;-68
2023/07/20 11:33:08;;;;;;;2.70;0.30;;;24.90;99.90;;;;;;5067784;28;20515;-69
2023/07/20 11:35:46;;;;;;;2.38;0.35;;;25.20;99.90;;;;;;5067854;28;20399;-69
2023/07/20 11:38:12;;;;;;;1.48;0.30;;;25.30;99.90;;;;;;5067867;28;20403;-69
2023/07/20 11:40:43;;;;;;;2.05;0.20;;;25.60;99.90;;;;;;5050154;28;20419;-68
2023/07/20 11:43:11;;;;;;;2.10;0.30;;;25.60;99.90;;;;;;5067383;28;21338;-68
2023/07/20 11:45:38;;;;;;;2.42;0.25;;;25.60;99.90;;;;;;5067925;28;20400;-68
2023/07/20 11:48:03;;;;;;;1.52;0.20;;;25.70;99.90;;;;;;5067860;28;20451;-68
2023/07/20 11:50:29;;;;;;;2.03;0.40;;;25.70;99.90;;;;;;5068310;28;20396;-68
2023/07/20 11:52:55;;;;;;;2.70;0.30;;;25.70;99.90;;;;;;5067825;28;20404;-68
2023/07/20 11:55:22;;;;;;;2.40;0.30;;;25.90;99.90;;;;;;5067917;28;20407;-68
2023/07/20 11:58:07;;;;;;;1.23;0.30;;;26.00;99.90;;;;;;5067146;28;20806;-68
2023/07/20 12:00:34;;;;;;;1.10;0.30;;;26.10;99.90;;;;;;5067893;28;20408;-68
2023/07/20 12:03:01;;;;;;;2.10;0.30;;;26.20;99.90;;;;;;5067537;28;20407;-68
2023/07/20 12:05:27;;;;;;;2.95;0.40;;;26.40;99.90;;;;;;5067932;28;20890;-68
2023/07/20 12:07:52;;;;;;;3.97;0.30;;;26.50;99.90;;;;;;5067799;28;20407;-68
2023/07/20 12:10:25;;;;;;;4.37;0.30;;;26.70;99.90;;;;;;5067786;28;20410;-69
2023/07/20 12:12:51;;;;;;;1.48;0.20;;;26.90;99.90;;;;;;5069396;28;20426;-68
2023/07/20 12:15:26;;;;;;;2.55;0.25;;;27.10;99.90;;;;;;5072187;28;20399;-68
2023/07/20 12:17:53;;;;;;;1.33;0.20;;;26.90;99.90;;;;;;5071452;28;20419;-68
2023/07/20 12:20:36;;;;;;;2.25;0.30;;;26.90;99.90;;;;;;5071500;28;20483;-69
2023/07/20 12:23:10;;;;;;;2.15;0.30;;;26.90;99.90;;;;;;5061634;28;20415;-68
2023/07/20 12:25:40;;;;;;;1.48;0.20;;;26.80;99.90;;;;;;5071111;28;20412;-68
2023/07/20 12:28:19;;;;;;;1.45;0.20;;;26.90;99.90;;;;;;5071538;28;20418;-68
2023/07/20 12:30:46;;;;;;;1.57;0.30;;;26.80;99.90;;;;;;5070743;28;20402;-68
2023/07/20 12:33:16;;;;;;;2.22;0.40;;;26.90;99.90;;;;;;5053446;28;20936;-69
2023/07/20 12:35:43;;;;;;;2.10;0.20;;;26.90;98.60;;;;;;5058339;28;20483;-68
2023/07/20 12:38:08;;;;;;;1.92;0.20;;;27.00;98.40;;;;;;5053317;28;20903;-68
2023/07/20 12:40:35;;;;;;;2.00;0.33;;;27.10;97.90;;;;;;5071186;28;20541;-68
2023/07/20 12:43:00;;;;;;;1.88;0.20;;;27.30;97.70;;;;;;5071445;28;20403;-68
2023/07/20 12:45:26;;;;;;;1.95;0.30;;;27.30;97.10;;;;;;5071741;28;20406;-68
2023/07/20 12:47:52;;;;;;;1.40;0.17;;;27.40;96.80;;;;;;5070373;28;20403;-69
2023/07/20 12:50:17;;;;;;;1.52;0.30;;;27.40;96.50;;;;;;5086833;28;20476;-69
2023/07/20 12:52:43;;;;;;;3.83;0.30;;;27.60;96.70;;;;;;5053137;28;20407;-69
2023/07/20 12:55:09;;;;;;;2.38;0.22;;;27.60;95.90;;;;;;5071242;28;20429;-69